UAL9 MTPP-SKCG
Flight info
| Callsign | UAL9 |
|---|---|
| Flight time | 1h 25m |
| Altitude | 36000 |
| Route | MTPP/10 N0451F360 DCT BOMEP UQ301 LENOM UG444 LIDOL UM597 ERIKO UW5 BAQ BAQ4B SKCG/01 |
| Aircraft | A321/M-V/N |
Departure
| Time | 2026-04-18 03:48 |
|---|---|
| Airport | Toussaint Louverture International Airport (MTPP) |
Arrival
| Time | 2026-04-18 05:13 |
|---|---|
| Airport | Rafael Nuñez International Airport (SKCG) |
| Time | Latitude | Longitude | Altitude | Speed | Heading |
|---|---|---|---|---|---|
| 2026-04-18 03:37 | 18.57617 | -72.29616 | 81 ft | 1 kts | 180° |
| 2026-04-18 03:38 | 18.57629 | -72.29616 | 80 ft | 4 kts | 166° |
| 2026-04-18 03:38 | 18.57647 | -72.29630 | 79 ft | 4 kts | 106° |
| 2026-04-18 03:38 | 18.57649 | -72.29648 | 79 ft | 0 kts | 87° |
| 2026-04-18 03:40 | 18.57650 | -72.29639 | 78 ft | 5 kts | 85° |
| 2026-04-18 03:40 | 18.57664 | -72.29556 | 80 ft | 18 kts | 77° |
| 2026-04-18 03:40 | 18.57728 | -72.29458 | 80 ft | 15 kts | 13° |
| 2026-04-18 03:41 | 18.57813 | -72.29462 | 80 ft | 8 kts | 358° |
| 2026-04-18 03:41 | 18.57819 | -72.29462 | 81 ft | 0 kts | 358° |
| 2026-04-18 03:44 | 18.57825 | -72.29462 | 82 ft | 5 kts | 358° |
| 2026-04-18 03:44 | 18.57918 | -72.29466 | 81 ft | 18 kts | 355° |
| 2026-04-18 03:44 | 18.57986 | -72.29524 | 80 ft | 15 kts | 280° |
| 2026-04-18 03:44 | 18.57977 | -72.29652 | 76 ft | 20 kts | 271° |
| 2026-04-18 03:45 | 18.57977 | -72.29811 | 76 ft | 23 kts | 267° |
| 2026-04-18 03:45 | 18.57967 | -72.29993 | 75 ft | 27 kts | 267° |
| 2026-04-18 03:45 | 18.57958 | -72.30203 | 73 ft | 31 kts | 267° |
| 2026-04-18 03:45 | 18.57943 | -72.30435 | 73 ft | 31 kts | 266° |
| 2026-04-18 03:46 | 18.57930 | -72.30591 | 68 ft | 7 kts | 247° |
| 2026-04-18 03:46 | 18.57896 | -72.30642 | 65 ft | 10 kts | 240° |
| 2026-04-18 03:46 | 18.57917 | -72.30683 | 58 ft | 5 kts | 347° |
| 2026-04-18 03:46 | 18.57941 | -72.30655 | 57 ft | 6 kts | 90° |
| 2026-04-18 03:47 | 18.57936 | -72.30621 | 56 ft | 4 kts | 94° |
| 2026-04-18 03:47 | 18.57936 | -72.30607 | 56 ft | 0 kts | 88° |
| 2026-04-18 03:47 | 18.57942 | -72.30347 | 78 ft | 82 kts | 87° |
| 2026-04-18 03:47 | 18.57998 | -72.29446 | 85 ft | 159 kts | 87° |
| 2026-04-18 03:48 | 18.58047 | -72.28147 | 557 ft | 184 kts | 88° |
| 2026-04-18 03:48 | 18.58077 | -72.26814 | 1553 ft | 172 kts | 88° |
| 2026-04-18 03:48 | 18.58089 | -72.25571 | 2044 ft | 178 kts | 89° |
| 2026-04-18 03:48 | 18.58085 | -72.24100 | 1858 ft | 222 kts | 90° |
| 2026-04-18 03:49 | 18.58052 | -72.22573 | 3141 ft | 184 kts | 92° |
| 2026-04-18 03:49 | 18.57990 | -72.21335 | 4252 ft | 164 kts | 93° |
| 2026-04-18 03:49 | 18.57892 | -72.20003 | 4493 ft | 205 kts | 95° |
| 2026-04-18 03:49 | 18.57738 | -72.18463 | 4985 ft | 205 kts | 97° |
| 2026-04-18 03:50 | 18.57555 | -72.17037 | 5857 ft | 195 kts | 98° |
| 2026-04-18 03:50 | 18.57328 | -72.15559 | 6172 ft | 214 kts | 99° |
| 2026-04-18 03:50 | 18.56990 | -72.13961 | 6442 ft | 234 kts | 112° |
| 2026-04-18 03:50 | 18.55904 | -72.12613 | 6658 ft | 258 kts | 150° |
| 2026-04-18 03:51 | 18.54106 | -72.12174 | 6998 ft | 278 kts | 185° |
| 2026-04-18 03:51 | 18.52293 | -72.12930 | 7576 ft | 288 kts | 218° |
| 2026-04-18 03:51 | 18.51134 | -72.14612 | 8223 ft | 294 kts | 251° |
| 2026-04-18 03:51 | 18.50934 | -72.16746 | 8903 ft | 297 kts | 277° |
| 2026-04-18 03:52 | 18.51291 | -72.18900 | 9595 ft | 300 kts | 279° |
| 2026-04-18 03:52 | 18.51248 | -72.21104 | 10219 ft | 305 kts | 256° |
| 2026-04-18 03:52 | 18.50391 | -72.23196 | 10494 ft | 323 kts | 232° |
| 2026-04-18 03:52 | 18.48756 | -72.24918 | 10654 ft | 342 kts | 221° |
| 2026-04-18 03:53 | 18.46944 | -72.26597 | 11120 ft | 350 kts | 220° |
| 2026-04-18 03:53 | 18.45105 | -72.28308 | 11726 ft | 354 kts | 221° |
| 2026-04-18 03:53 | 18.43251 | -72.30042 | 12374 ft | 357 kts | 221° |
| 2026-04-18 03:53 | 18.41389 | -72.31792 | 12993 ft | 361 kts | 221° |
| 2026-04-18 03:54 | 18.39514 | -72.33561 | 13612 ft | 364 kts | 221° |
| 2026-04-18 03:54 | 18.38257 | -72.34749 | 14003 ft | 366 kts | 221° |
| 2026-04-18 03:54 | 18.35728 | -72.37140 | 14697 ft | 370 kts | 221° |
| 2026-04-18 03:54 | 18.34447 | -72.38350 | 15072 ft | 372 kts | 221° |
| 2026-04-18 03:55 | 18.31856 | -72.40800 | 15778 ft | 377 kts | 221° |
| 2026-04-18 03:55 | 18.30562 | -72.42024 | 16128 ft | 379 kts | 221° |
| 2026-04-18 03:55 | 18.28582 | -72.43895 | 16654 ft | 382 kts | 221° |
| 2026-04-18 03:55 | 18.26598 | -72.45767 | 17194 ft | 385 kts | 221° |
| 2026-04-18 03:56 | 18.23935 | -72.48274 | 17867 ft | 389 kts | 221° |
| 2026-04-18 03:56 | 18.22591 | -72.49540 | 18203 ft | 391 kts | 221° |
| 2026-04-18 03:56 | 18.20554 | -72.51456 | 18640 ft | 395 kts | 222° |
| 2026-04-18 03:56 | 18.18497 | -72.53388 | 19060 ft | 397 kts | 222° |
| 2026-04-18 03:57 | 18.14339 | -72.57296 | 19878 ft | 403 kts | 222° |
| 2026-04-18 03:57 | 18.12239 | -72.59273 | 20287 ft | 406 kts | 222° |
| 2026-04-18 03:57 | 18.10131 | -72.61257 | 20674 ft | 409 kts | 222° |
| 2026-04-18 03:58 | 18.08001 | -72.63258 | 21054 ft | 412 kts | 222° |
| 2026-04-18 03:58 | 18.05855 | -72.65274 | 21422 ft | 415 kts | 223° |
| 2026-04-18 03:58 | 18.03690 | -72.67307 | 21819 ft | 418 kts | 223° |
| 2026-04-18 03:58 | 18.01519 | -72.69345 | 22201 ft | 421 kts | 223° |
| 2026-04-18 03:59 | 17.99325 | -72.71404 | 22582 ft | 423 kts | 223° |
| 2026-04-18 03:59 | 17.97121 | -72.73473 | 22948 ft | 426 kts | 223° |
| 2026-04-18 03:59 | 17.94898 | -72.75551 | 23316 ft | 429 kts | 221° |
| 2026-04-18 03:59 | 17.92456 | -72.77362 | 23632 ft | 433 kts | 210° |
| 2026-04-18 04:00 | 17.89686 | -72.78636 | 23920 ft | 436 kts | 198° |
| 2026-04-18 04:00 | 17.86724 | -72.79297 | 24216 ft | 438 kts | 186° |
| 2026-04-18 04:00 | 17.83672 | -72.79317 | 24513 ft | 440 kts | 173° |
| 2026-04-18 04:00 | 17.80667 | -72.78817 | 24814 ft | 442 kts | 169° |
| 2026-04-18 04:01 | 17.77627 | -72.78261 | 25127 ft | 444 kts | 169° |
| 2026-04-18 04:01 | 17.74572 | -72.77709 | 25445 ft | 446 kts | 170° |
| 2026-04-18 04:01 | 17.71504 | -72.77156 | 25769 ft | 448 kts | 170° |
| 2026-04-18 04:01 | 17.68427 | -72.76603 | 26089 ft | 450 kts | 170° |
| 2026-04-18 04:02 | 17.65335 | -72.76066 | 26392 ft | 452 kts | 171° |
| 2026-04-18 04:02 | 17.62207 | -72.75587 | 26697 ft | 454 kts | 172° |
| 2026-04-18 04:02 | 17.59065 | -72.75153 | 27007 ft | 456 kts | 173° |
| 2026-04-18 04:02 | 17.55946 | -72.74748 | 27292 ft | 459 kts | 173° |
| 2026-04-18 04:03 | 17.52729 | -72.74332 | 27609 ft | 461 kts | 173° |
| 2026-04-18 04:03 | 17.49584 | -72.73917 | 27907 ft | 463 kts | 172° |
| 2026-04-18 04:03 | 17.46384 | -72.73481 | 28191 ft | 465 kts | 172° |
| 2026-04-18 04:03 | 17.43169 | -72.73034 | 28495 ft | 467 kts | 172° |
| 2026-04-18 04:04 | 17.39946 | -72.72582 | 28792 ft | 469 kts | 172° |
| 2026-04-18 04:04 | 17.36707 | -72.72127 | 29075 ft | 471 kts | 172° |
| 2026-04-18 04:04 | 17.33450 | -72.71668 | 29358 ft | 473 kts | 172° |
| 2026-04-18 04:04 | 17.30185 | -72.71208 | 29632 ft | 474 kts | 172° |
| 2026-04-18 04:05 | 17.26906 | -72.70747 | 29891 ft | 476 kts | 172° |
| 2026-04-18 04:05 | 17.23618 | -72.70287 | 30127 ft | 478 kts | 172° |
| 2026-04-18 04:05 | 17.20310 | -72.69826 | 30359 ft | 480 kts | 173° |
| 2026-04-18 04:05 | 17.16998 | -72.69365 | 30586 ft | 482 kts | 173° |
| 2026-04-18 04:06 | 17.13668 | -72.68901 | 30817 ft | 484 kts | 173° |
| 2026-04-18 04:06 | 17.10318 | -72.68432 | 31038 ft | 486 kts | 173° |
| 2026-04-18 04:06 | 17.06973 | -72.67967 | 31330 ft | 486 kts | 173° |
| 2026-04-18 04:06 | 17.03618 | -72.67524 | 31655 ft | 485 kts | 176° |
| 2026-04-18 04:07 | 17.00249 | -72.67460 | 31965 ft | 483 kts | 185° |
| 2026-04-18 04:07 | 16.96926 | -72.67923 | 32272 ft | 481 kts | 194° |
| 2026-04-18 04:07 | 16.93739 | -72.68800 | 32582 ft | 480 kts | 198° |
| 2026-04-18 04:07 | 16.90524 | -72.69736 | 32917 ft | 479 kts | 198° |
| 2026-04-18 04:08 | 16.87312 | -72.70662 | 33255 ft | 479 kts | 198° |
| 2026-04-18 04:08 | 16.84099 | -72.71585 | 33603 ft | 478 kts | 198° |
| 2026-04-18 04:08 | 16.80895 | -72.72503 | 33937 ft | 477 kts | 198° |
| 2026-04-18 04:08 | 16.77695 | -72.73423 | 34234 ft | 476 kts | 198° |
| 2026-04-18 04:09 | 16.74508 | -72.74340 | 34512 ft | 476 kts | 198° |
| 2026-04-18 04:09 | 16.71314 | -72.75258 | 34782 ft | 475 kts | 198° |
| 2026-04-18 04:09 | 16.68128 | -72.76173 | 35053 ft | 475 kts | 198° |
| 2026-04-18 04:09 | 16.64936 | -72.77087 | 35307 ft | 474 kts | 198° |
| 2026-04-18 04:10 | 16.61754 | -72.78003 | 35585 ft | 474 kts | 198° |
| 2026-04-18 04:10 | 16.58583 | -72.78917 | 35838 ft | 473 kts | 198° |
| 2026-04-18 04:10 | 16.55411 | -72.79827 | 35957 ft | 473 kts | 198° |
| 2026-04-18 04:11 | 16.49138 | -72.81622 | 35988 ft | 468 kts | 198° |
| 2026-04-18 04:11 | 16.42864 | -72.83426 | 35988 ft | 467 kts | 199° |
| 2026-04-18 04:12 | 16.36604 | -72.85227 | 35991 ft | 467 kts | 198° |
| 2026-04-18 04:12 | 16.30372 | -72.87009 | 35992 ft | 467 kts | 198° |
| 2026-04-18 04:13 | 16.24060 | -72.88810 | 35989 ft | 467 kts | 198° |
| 2026-04-18 04:13 | 16.17843 | -72.90583 | 35984 ft | 467 kts | 198° |
| 2026-04-18 04:14 | 16.11574 | -72.92369 | 35985 ft | 467 kts | 198° |
| 2026-04-18 04:14 | 16.05311 | -72.94149 | 35982 ft | 467 kts | 198° |
| 2026-04-18 04:15 | 15.99038 | -72.95933 | 35966 ft | 467 kts | 199° |
| 2026-04-18 04:15 | 15.92761 | -72.97727 | 35977 ft | 467 kts | 199° |
| 2026-04-18 04:16 | 15.86482 | -72.99510 | 35985 ft | 467 kts | 198° |
| 2026-04-18 04:16 | 15.80212 | -73.01279 | 35987 ft | 467 kts | 198° |
| 2026-04-18 04:17 | 15.73938 | -73.03055 | 35987 ft | 467 kts | 199° |
| 2026-04-18 04:17 | 15.67715 | -73.04827 | 35984 ft | 467 kts | 199° |
| 2026-04-18 04:18 | 15.61444 | -73.06600 | 35976 ft | 466 kts | 198° |
| 2026-04-18 04:18 | 15.55151 | -73.08382 | 35980 ft | 466 kts | 198° |
| 2026-04-18 04:19 | 15.48936 | -73.10140 | 35977 ft | 466 kts | 198° |
| 2026-04-18 04:19 | 15.42692 | -73.11906 | 35974 ft | 466 kts | 198° |
| 2026-04-18 04:20 | 15.36427 | -73.13673 | 35975 ft | 466 kts | 198° |
| 2026-04-18 04:20 | 15.30175 | -73.15437 | 35972 ft | 465 kts | 198° |
| 2026-04-18 04:21 | 15.23941 | -73.17209 | 35978 ft | 465 kts | 198° |
| 2026-04-18 04:21 | 15.17695 | -73.18979 | 35981 ft | 465 kts | 198° |
| 2026-04-18 04:22 | 15.11477 | -73.20815 | 35982 ft | 462 kts | 204° |
| 2026-04-18 04:22 | 15.05938 | -73.24004 | 35978 ft | 452 kts | 223° |
| 2026-04-18 04:23 | 15.01333 | -73.28373 | 35974 ft | 449 kts | 227° |
| 2026-04-18 04:23 | 14.96757 | -73.32782 | 35954 ft | 450 kts | 226° |
| 2026-04-18 04:24 | 14.92164 | -73.37198 | 35961 ft | 451 kts | 226° |
| 2026-04-18 04:24 | 14.87602 | -73.41591 | 35969 ft | 451 kts | 226° |
| 2026-04-18 04:25 | 14.83086 | -73.46082 | 35973 ft | 450 kts | 229° |
| 2026-04-18 04:25 | 14.78703 | -73.50701 | 35974 ft | 450 kts | 229° |
| 2026-04-18 04:26 | 14.74323 | -73.55325 | 35974 ft | 450 kts | 229° |
| 2026-04-18 04:26 | 14.69921 | -73.59915 | 35973 ft | 450 kts | 229° |
| 2026-04-18 04:27 | 14.65493 | -73.64497 | 35964 ft | 450 kts | 229° |
| 2026-04-18 04:27 | 14.61065 | -73.69068 | 35972 ft | 450 kts | 229° |
| 2026-04-18 04:28 | 14.56639 | -73.73654 | 35974 ft | 450 kts | 229° |
| 2026-04-18 04:28 | 14.52243 | -73.78207 | 35972 ft | 451 kts | 229° |
| 2026-04-18 04:29 | 14.47816 | -73.82787 | 35967 ft | 450 kts | 229° |
| 2026-04-18 04:29 | 14.43376 | -73.87371 | 35967 ft | 450 kts | 229° |
| 2026-04-18 04:30 | 14.38955 | -73.91955 | 35977 ft | 450 kts | 229° |
| 2026-04-18 04:30 | 14.34559 | -73.96502 | 35952 ft | 450 kts | 228° |
| 2026-04-18 04:31 | 14.30099 | -74.01100 | 35949 ft | 451 kts | 228° |
| 2026-04-18 04:31 | 14.25707 | -74.05658 | 35960 ft | 451 kts | 229° |
| 2026-04-18 04:32 | 14.21286 | -74.10260 | 35958 ft | 452 kts | 229° |
| 2026-04-18 04:32 | 14.16316 | -74.14270 | 35962 ft | 459 kts | 211° |
| 2026-04-18 04:32 | 14.13379 | -74.15590 | 35963 ft | 462 kts | 200° |
| 2026-04-18 04:33 | 14.10248 | -74.16402 | 35957 ft | 465 kts | 194° |
| 2026-04-18 04:33 | 14.03901 | -74.17741 | 35958 ft | 465 kts | 194° |
| 2026-04-18 04:34 | 13.97560 | -74.19102 | 35958 ft | 465 kts | 194° |
| 2026-04-18 04:34 | 13.91217 | -74.20458 | 35964 ft | 465 kts | 194° |
| 2026-04-18 04:35 | 13.84910 | -74.21791 | 35962 ft | 466 kts | 194° |
| 2026-04-18 04:35 | 13.78561 | -74.23139 | 35960 ft | 466 kts | 194° |
| 2026-04-18 04:36 | 13.72179 | -74.24495 | 35963 ft | 466 kts | 194° |
| 2026-04-18 04:36 | 13.65870 | -74.25846 | 35958 ft | 465 kts | 194° |
| 2026-04-18 04:37 | 13.59537 | -74.27198 | 35966 ft | 465 kts | 194° |
| 2026-04-18 04:37 | 13.53207 | -74.28541 | 35965 ft | 464 kts | 194° |
| 2026-04-18 04:38 | 13.46876 | -74.29882 | 35966 ft | 464 kts | 194° |
| 2026-04-18 04:38 | 13.40553 | -74.31227 | 35965 ft | 464 kts | 194° |
| 2026-04-18 04:39 | 13.34240 | -74.32572 | 35957 ft | 464 kts | 194° |
| 2026-04-18 04:39 | 13.27944 | -74.33897 | 35965 ft | 463 kts | 194° |
| 2026-04-18 04:40 | 13.21624 | -74.35223 | 35969 ft | 462 kts | 194° |
| 2026-04-18 04:40 | 13.15319 | -74.36563 | 35961 ft | 462 kts | 194° |
| 2026-04-18 04:41 | 13.09021 | -74.37903 | 35962 ft | 462 kts | 194° |
| 2026-04-18 04:41 | 13.02729 | -74.39230 | 35963 ft | 462 kts | 194° |
| 2026-04-18 04:42 | 12.96433 | -74.40556 | 35961 ft | 462 kts | 194° |
| 2026-04-18 04:42 | 12.91197 | -74.41660 | 35959 ft | 461 kts | 194° |
| 2026-04-18 04:43 | 12.84915 | -74.42989 | 35959 ft | 461 kts | 194° |
| 2026-04-18 04:43 | 12.77604 | -74.44539 | 35960 ft | 461 kts | 194° |
| 2026-04-18 04:44 | 12.72343 | -74.45656 | 35957 ft | 461 kts | 194° |
| 2026-04-18 04:44 | 12.66107 | -74.46967 | 35948 ft | 461 kts | 194° |
| 2026-04-18 04:45 | 12.59818 | -74.48285 | 35959 ft | 460 kts | 194° |
| 2026-04-18 04:45 | 12.53548 | -74.49604 | 35959 ft | 460 kts | 194° |
| 2026-04-18 04:46 | 12.47282 | -74.50929 | 35964 ft | 459 kts | 194° |
| 2026-04-18 04:46 | 12.41021 | -74.52249 | 35959 ft | 459 kts | 194° |
| 2026-04-18 04:47 | 12.34759 | -74.53561 | 35959 ft | 459 kts | 194° |
| 2026-04-18 04:47 | 12.28511 | -74.54872 | 35965 ft | 458 kts | 194° |
| 2026-04-18 04:48 | 12.22260 | -74.56186 | 35964 ft | 457 kts | 194° |
| 2026-04-18 04:48 | 12.16033 | -74.57495 | 35965 ft | 457 kts | 194° |
| 2026-04-18 04:49 | 12.09849 | -74.58792 | 35964 ft | 456 kts | 194° |
| 2026-04-18 04:49 | 12.03629 | -74.60100 | 35950 ft | 456 kts | 194° |
| 2026-04-18 04:50 | 11.97417 | -74.61411 | 35939 ft | 456 kts | 194° |
| 2026-04-18 04:50 | 11.91230 | -74.62711 | 35964 ft | 455 kts | 193° |
| 2026-04-18 04:51 | 11.85012 | -74.64008 | 35961 ft | 454 kts | 194° |
| 2026-04-18 04:51 | 11.78825 | -74.65296 | 35958 ft | 453 kts | 194° |
| 2026-04-18 04:52 | 11.72645 | -74.66590 | 35929 ft | 454 kts | 194° |
| 2026-04-18 04:52 | 11.69557 | -74.67238 | 35561 ft | 453 kts | 194° |
| 2026-04-18 04:52 | 11.66471 | -74.67886 | 34995 ft | 451 kts | 194° |
| 2026-04-18 04:52 | 11.63401 | -74.68529 | 34406 ft | 451 kts | 194° |
| 2026-04-18 04:53 | 11.60351 | -74.69166 | 33816 ft | 451 kts | 194° |
| 2026-04-18 04:53 | 11.57277 | -74.69809 | 33134 ft | 451 kts | 194° |
| 2026-04-18 04:53 | 11.54196 | -74.70452 | 32500 ft | 450 kts | 194° |
| 2026-04-18 04:53 | 11.51136 | -74.71094 | 31951 ft | 448 kts | 194° |
| 2026-04-18 04:54 | 11.48089 | -74.71731 | 31406 ft | 445 kts | 193° |
| 2026-04-18 04:54 | 11.45053 | -74.72364 | 30869 ft | 444 kts | 194° |
| 2026-04-18 04:54 | 11.42039 | -74.72995 | 30343 ft | 442 kts | 194° |
| 2026-04-18 04:54 | 11.39031 | -74.73624 | 29777 ft | 440 kts | 194° |
| 2026-04-18 04:55 | 11.36036 | -74.74251 | 29190 ft | 438 kts | 194° |
| 2026-04-18 04:55 | 11.33103 | -74.74866 | 28667 ft | 434 kts | 194° |
| 2026-04-18 04:55 | 11.30152 | -74.75484 | 28118 ft | 432 kts | 194° |
| 2026-04-18 04:56 | 11.24331 | -74.76696 | 26951 ft | 422 kts | 193° |
| 2026-04-18 04:56 | 11.21460 | -74.77293 | 26481 ft | 418 kts | 193° |
| 2026-04-18 04:56 | 11.18626 | -74.77885 | 26002 ft | 415 kts | 192° |
| 2026-04-18 04:56 | 11.15797 | -74.78476 | 25512 ft | 412 kts | 193° |
| 2026-04-18 04:57 | 11.12994 | -74.79062 | 25032 ft | 410 kts | 192° |
| 2026-04-18 04:57 | 11.10207 | -74.79643 | 24550 ft | 407 kts | 192° |
| 2026-04-18 04:57 | 11.07434 | -74.80220 | 24093 ft | 404 kts | 192° |
| 2026-04-18 04:57 | 11.04681 | -74.80793 | 23614 ft | 403 kts | 192° |
| 2026-04-18 04:58 | 11.01970 | -74.81358 | 23103 ft | 400 kts | 192° |
| 2026-04-18 04:58 | 10.99251 | -74.81925 | 22619 ft | 397 kts | 192° |
| 2026-04-18 04:58 | 10.96555 | -74.82486 | 22126 ft | 394 kts | 192° |
| 2026-04-18 04:58 | 10.93880 | -74.83044 | 21657 ft | 390 kts | 193° |
| 2026-04-18 04:59 | 10.91232 | -74.83598 | 21228 ft | 386 kts | 192° |
| 2026-04-18 04:59 | 10.88618 | -74.84141 | 20818 ft | 382 kts | 192° |
| 2026-04-18 04:59 | 10.86021 | -74.84679 | 20386 ft | 378 kts | 193° |
| 2026-04-18 04:59 | 10.83453 | -74.85210 | 19945 ft | 375 kts | 193° |
| 2026-04-18 05:00 | 10.80965 | -74.85942 | 19531 ft | 370 kts | 204° |
| 2026-04-18 05:00 | 10.78719 | -74.87183 | 19123 ft | 365 kts | 217° |
| 2026-04-18 05:00 | 10.76833 | -74.88831 | 18711 ft | 361 kts | 227° |
| 2026-04-18 05:00 | 10.75071 | -74.90691 | 18289 ft | 358 kts | 227° |
| 2026-04-18 05:01 | 10.73365 | -74.92478 | 17848 ft | 356 kts | 227° |
| 2026-04-18 05:01 | 10.71640 | -74.94276 | 17392 ft | 353 kts | 227° |
| 2026-04-18 05:01 | 10.69933 | -74.96051 | 16955 ft | 350 kts | 227° |
| 2026-04-18 05:01 | 10.68241 | -74.97813 | 16530 ft | 347 kts | 226° |
| 2026-04-18 05:02 | 10.66561 | -74.99563 | 16113 ft | 344 kts | 226° |
| 2026-04-18 05:02 | 10.64895 | -75.01301 | 15708 ft | 342 kts | 226° |
| 2026-04-18 05:02 | 10.63242 | -75.03023 | 15291 ft | 339 kts | 226° |
| 2026-04-18 05:02 | 10.61601 | -75.04733 | 14914 ft | 336 kts | 226° |
| 2026-04-18 05:03 | 10.59975 | -75.06430 | 14531 ft | 334 kts | 226° |
| 2026-04-18 05:03 | 10.58366 | -75.08109 | 14143 ft | 332 kts | 225° |
| 2026-04-18 05:03 | 10.56754 | -75.09792 | 13765 ft | 330 kts | 225° |
| 2026-04-18 05:03 | 10.55159 | -75.11456 | 13335 ft | 327 kts | 225° |
| 2026-04-18 05:04 | 10.53573 | -75.13107 | 12915 ft | 325 kts | 225° |
| 2026-04-18 05:04 | 10.51995 | -75.14745 | 12495 ft | 323 kts | 225° |
| 2026-04-18 05:04 | 10.50429 | -75.16370 | 12084 ft | 321 kts | 226° |
| 2026-04-18 05:04 | 10.48870 | -75.17989 | 11674 ft | 319 kts | 226° |
| 2026-04-18 05:05 | 10.47323 | -75.19601 | 11262 ft | 318 kts | 226° |
| 2026-04-18 05:05 | 10.45816 | -75.21175 | 11080 ft | 308 kts | 226° |
| 2026-04-18 05:05 | 10.44345 | -75.22712 | 10935 ft | 297 kts | 226° |
| 2026-04-18 05:05 | 10.42916 | -75.24201 | 10679 ft | 292 kts | 226° |
| 2026-04-18 05:06 | 10.41497 | -75.25676 | 10341 ft | 290 kts | 226° |
| 2026-04-18 05:06 | 10.40089 | -75.27141 | 9992 ft | 289 kts | 226° |
| 2026-04-18 05:06 | 10.38691 | -75.28597 | 9614 ft | 287 kts | 227° |
| 2026-04-18 05:06 | 10.37300 | -75.30046 | 9223 ft | 286 kts | 226° |
| 2026-04-18 05:07 | 10.35914 | -75.31487 | 8912 ft | 281 kts | 226° |
| 2026-04-18 05:07 | 10.34575 | -75.32878 | 8794 ft | 270 kts | 226° |
| 2026-04-18 05:07 | 10.33287 | -75.34217 | 8666 ft | 259 kts | 226° |
| 2026-04-18 05:07 | 10.32072 | -75.35483 | 8532 ft | 249 kts | 226° |
| 2026-04-18 05:08 | 10.30877 | -75.36727 | 8275 ft | 245 kts | 226° |
| 2026-04-18 05:08 | 10.29682 | -75.37968 | 7966 ft | 244 kts | 226° |
| 2026-04-18 05:08 | 10.28499 | -75.39197 | 7648 ft | 243 kts | 226° |
| 2026-04-18 05:08 | 10.27312 | -75.40433 | 7334 ft | 242 kts | 227° |
| 2026-04-18 05:09 | 10.26369 | -75.41835 | 6855 ft | 241 kts | 248° |
| 2026-04-18 05:09 | 10.25999 | -75.43463 | 6279 ft | 240 kts | 269° |
| 2026-04-18 05:09 | 10.26062 | -75.45156 | 5670 ft | 242 kts | 273° |
| 2026-04-18 05:09 | 10.26141 | -75.46913 | 5065 ft | 255 kts | 272° |
| 2026-04-18 05:10 | 10.26217 | -75.48750 | 4451 ft | 266 kts | 272° |
| 2026-04-18 05:10 | 10.26465 | -75.50630 | 3821 ft | 274 kts | 292° |
| 2026-04-18 05:10 | 10.27620 | -75.52153 | 3226 ft | 277 kts | 327° |
| 2026-04-18 05:10 | 10.29435 | -75.52760 | 2612 ft | 280 kts | 1° |
| 2026-04-18 05:11 | 10.31268 | -75.52236 | 2239 ft | 272 kts | 29° |
| 2026-04-18 05:11 | 10.32971 | -75.51460 | 1906 ft | 267 kts | 12° |
| 2026-04-18 05:11 | 10.34755 | -75.51516 | 1620 ft | 252 kts | 353° |
| 2026-04-18 05:11 | 10.36408 | -75.51623 | 1259 ft | 228 kts | 3° |
| 2026-04-18 05:12 | 10.37952 | -75.51560 | 973 ft | 214 kts | 5° |
| 2026-04-18 05:12 | 10.39364 | -75.51494 | 766 ft | 192 kts | 4° |
| 2026-04-18 05:12 | 10.40619 | -75.51440 | 540 ft | 172 kts | 2° |
| 2026-04-18 05:12 | 10.41740 | -75.51393 | 345 ft | 152 kts | 3° |
| 2026-04-18 05:13 | 10.42765 | -75.51351 | 124 ft | 144 kts | 3° |
| 2026-04-18 05:13 | 10.43751 | -75.51305 | 32 ft | 135 kts | 1° |
| 2026-04-18 05:13 | 10.44613 | -75.51282 | 13 ft | 103 kts | 358° |
| 2026-04-18 05:13 | 10.44979 | -75.51268 | 15 ft | 28 kts | 6° |
| 2026-04-18 05:14 | 10.45100 | -75.51268 | 13 ft | 12 kts | 3° |
| 2026-04-18 05:14 | 10.45196 | -75.51272 | 13 ft | 13 kts | 337° |
| 2026-04-18 05:14 | 10.45255 | -75.51289 | 13 ft | 8 kts | 1° |
| 2026-04-18 05:14 | 10.45302 | -75.51247 | 13 ft | 12 kts | 98° |
| 2026-04-18 05:15 | 10.45214 | -75.51231 | 15 ft | 17 kts | 188° |
| 2026-04-18 05:15 | 10.45090 | -75.51254 | 14 ft | 15 kts | 183° |
| 2026-04-18 05:15 | 10.44969 | -75.51261 | 15 ft | 20 kts | 184° |
| 2026-04-18 05:15 | 10.44874 | -75.51267 | 16 ft | 16 kts | 184° |
| 2026-04-18 05:16 | 10.44763 | -75.51275 | 16 ft | 11 kts | 182° |
| 2026-04-18 05:16 | 10.44686 | -75.51280 | 13 ft | 10 kts | 188° |
| 2026-04-18 05:16 | 10.44645 | -75.51343 | 12 ft | 13 kts | 266° |
| 2026-04-18 05:16 | 10.44629 | -75.51409 | 12 ft | 9 kts | 246° |
| 2026-04-18 05:17 | 10.44591 | -75.51471 | 12 ft | 12 kts | 239° |
| 2026-04-18 05:17 | 10.44569 | -75.51510 | 12 ft | 0 kts | 242° |